sensor_id;sensor_type;location;lat;lon;timestamp;P1;durP1;ratioP1;P2;durP2;ratioP2
2888;SDS011;1453;42.708;23.282;2023-01-16T00:01:09;56.70;;;28.15;;
2888;SDS011;1453;42.708;23.282;2023-01-16T00:03:35;54.05;;;25.65;;
2888;SDS011;1453;42.708;23.282;2023-01-16T00:06:01;61.83;;;29.80;;
2888;SDS011;1453;42.708;23.282;2023-01-16T00:08:27;61.43;;;29.27;;
2888;SDS011;1453;42.708;23.282;2023-01-16T00:10:53;61.43;;;29.60;;
2888;SDS011;1453;42.708;23.282;2023-01-16T00:13:19;62.83;;;29.70;;
2888;SDS011;1453;42.708;23.282;2023-01-16T00:15:45;61.00;;;29.00;;
2888;SDS011;1453;42.708;23.282;2023-01-16T00:18:14;64.05;;;29.95;;
2888;SDS011;1453;42.708;23.282;2023-01-16T00:20:40;60.63;;;29.58;;
2888;SDS011;1453;42.708;23.282;2023-01-16T00:23:06;64.03;;;29.20;;
2888;SDS011;1453;42.708;23.282;2023-01-16T00:25:32;55.08;;;28.77;;
2888;SDS011;1453;42.708;23.282;2023-01-16T00:27:58;52.77;;;27.23;;
2888;SDS011;1453;42.708;23.282;2023-01-16T00:30:24;59.53;;;29.67;;
2888;SDS011;1453;42.708;23.282;2023-01-16T00:32:49;60.20;;;28.53;;
2888;SDS011;1453;42.708;23.282;2023-01-16T00:35:15;63.80;;;29.30;;
2888;SDS011;1453;42.708;23.282;2023-01-16T00:37:41;57.80;;;28.43;;
2888;SDS011;1453;42.708;23.282;2023-01-16T00:40:07;50.17;;;23.20;;
2888;SDS011;1453;42.708;23.282;2023-01-16T00:42:33;64.53;;;28.35;;
2888;SDS011;1453;42.708;23.282;2023-01-16T00:44:59;62.13;;;28.00;;
2888;SDS011;1453;42.708;23.282;2023-01-16T00:47:25;48.10;;;26.70;;
2888;SDS011;1453;42.708;23.282;2023-01-16T00:49:51;54.60;;;27.53;;
2888;SDS011;1453;42.708;23.282;2023-01-16T00:52:16;56.23;;;28.63;;
2888;SDS011;1453;42.708;23.282;2023-01-16T00:54:44;79.70;;;37.13;;
2888;SDS011;1453;42.708;23.282;2023-01-16T00:57:09;58.25;;;31.55;;
2888;SDS011;1453;42.708;23.282;2023-01-16T00:59:35;75.40;;;36.90;;
2888;SDS011;1453;42.708;23.282;2023-01-16T01:02:01;67.37;;;34.30;;
2888;SDS011;1453;42.708;23.282;2023-01-16T01:04:27;66.23;;;31.37;;
2888;SDS011;1453;42.708;23.282;2023-01-16T01:06:53;78.80;;;37.72;;
2888;SDS011;1453;42.708;23.282;2023-01-16T01:09:19;74.43;;;36.70;;
2888;SDS011;1453;42.708;23.282;2023-01-16T01:11:45;68.40;;;34.57;;
2888;SDS011;1453;42.708;23.282;2023-01-16T01:14:11;50.60;;;26.37;;
2888;SDS011;1453;42.708;23.282;2023-01-16T01:16:36;59.27;;;27.63;;
2888;SDS011;1453;42.708;23.282;2023-01-16T01:19:02;47.67;;;21.93;;
2888;SDS011;1453;42.708;23.282;2023-01-16T01:21:28;53.03;;;23.80;;
2888;SDS011;1453;42.708;23.282;2023-01-16T01:23:55;55.30;;;27.00;;
2888;SDS011;1453;42.708;23.282;2023-01-16T01:26:21;58.13;;;27.65;;
2888;SDS011;1453;42.708;23.282;2023-01-16T01:28:47;62.17;;;31.85;;
2888;SDS011;1453;42.708;23.282;2023-01-16T01:31:13;60.43;;;28.07;;
2888;SDS011;1453;42.708;23.282;2023-01-16T01:33:41;63.13;;;30.90;;
2888;SDS011;1453;42.708;23.282;2023-01-16T01:36:07;72.30;;;34.55;;
2888;SDS011;1453;42.708;23.282;2023-01-16T01:38:33;71.95;;;34.63;;
2888;SDS011;1453;42.708;23.282;2023-01-16T01:40:59;70.45;;;34.72;;
2888;SDS011;1453;42.708;23.282;2023-01-16T01:46:39;76.10;;;33.80;;
2888;SDS011;1453;42.708;23.282;2023-01-16T01:49:14;54.95;;;27.17;;
2888;SDS011;1453;42.708;23.282;2023-01-16T01:51:54;82.90;;;34.22;;
2888;SDS011;1453;42.708;23.282;2023-01-16T01:54:26;60.38;;;30.08;;
2888;SDS011;1453;42.708;23.282;2023-01-16T01:57:04;56.88;;;29.63;;
2888;SDS011;1453;42.708;23.282;2023-01-16T01:59:40;55.42;;;27.15;;
2888;SDS011;1453;42.708;23.282;2023-01-16T02:02:11;63.50;;;31.77;;
2888;SDS011;1453;42.708;23.282;2023-01-16T02:04:44;61.05;;;34.05;;
2888;SDS011;1453;42.708;23.282;2023-01-16T02:07:12;67.47;;;32.33;;
2888;SDS011;1453;42.708;23.282;2023-01-16T02:09:41;64.22;;;29.88;;
2888;SDS011;1453;42.708;23.282;2023-01-16T02:12:08;65.03;;;32.33;;
2888;SDS011;1453;42.708;23.282;2023-01-16T02:14:39;69.63;;;31.55;;
2888;SDS011;1453;42.708;23.282;2023-01-16T02:17:11;70.80;;;30.83;;
2888;SDS011;1453;42.708;23.282;2023-01-16T02:29:15;48.70;;;21.67;;
2888;SDS011;1453;42.708;23.282;2023-01-16T02:32:17;49.90;;;23.80;;
2888;SDS011;1453;42.708;23.282;2023-01-16T02:38:21;51.42;;;26.02;;
2888;SDS011;1453;42.708;23.282;2023-01-16T02:43:57;44.38;;;24.35;;
2888;SDS011;1453;42.708;23.282;2023-01-16T02:49:41;52.08;;;24.90;;
2888;SDS011;1453;42.708;23.282;2023-01-16T02:52:13;52.58;;;26.30;;
2888;SDS011;1453;42.708;23.282;2023-01-16T02:55:01;53.55;;;26.20;;
2888;SDS011;1453;42.708;23.282;2023-01-16T02:57:40;63.58;;;29.00;;
2888;SDS011;1453;42.708;23.282;2023-01-16T03:00:11;44.72;;;25.20;;
2888;SDS011;1453;42.708;23.282;2023-01-16T03:02:44;53.00;;;26.10;;
2888;SDS011;1453;42.708;23.282;2023-01-16T03:05:11;51.15;;;27.08;;
2888;SDS011;1453;42.708;23.282;2023-01-16T03:13:18;50.08;;;25.70;;
2888;SDS011;1453;42.708;23.282;2023-01-16T03:19:11;51.90;;;24.35;;
2888;SDS011;1453;42.708;23.282;2023-01-16T03:27:07;52.95;;;25.48;;
2888;SDS011;1453;42.708;23.282;2023-01-16T03:33:30;43.10;;;24.00;;
2888;SDS011;1453;42.708;23.282;2023-01-16T03:39:21;48.65;;;24.70;;
2888;SDS011;1453;42.708;23.282;2023-01-16T03:41:59;50.90;;;25.08;;
2888;SDS011;1453;42.708;23.282;2023-01-16T03:44:32;49.58;;;26.45;;
2888;SDS011;1453;42.708;23.282;2023-01-16T03:47:02;53.72;;;27.77;;
2888;SDS011;1453;42.708;23.282;2023-01-16T03:49:40;54.25;;;24.83;;
2888;SDS011;1453;42.708;23.282;2023-01-16T03:52:11;45.85;;;24.40;;
2888;SDS011;1453;42.708;23.282;2023-01-16T03:54:48;68.95;;;32.03;;
2888;SDS011;1453;42.708;23.282;2023-01-16T03:57:44;71.93;;;33.00;;
2888;SDS011;1453;42.708;23.282;2023-01-16T04:00:16;74.63;;;32.55;;
2888;SDS011;1453;42.708;23.282;2023-01-16T04:02:46;86.45;;;36.53;;
2888;SDS011;1453;42.708;23.282;2023-01-16T04:08:18;97.72;;;37.08;;
2888;SDS011;1453;42.708;23.282;2023-01-16T04:10:50;64.63;;;23.65;;
2888;SDS011;1453;42.708;23.282;2023-01-16T04:13:18;50.08;;;22.05;;
2888;SDS011;1453;42.708;23.282;2023-01-16T04:15:52;47.10;;;21.00;;
2888;SDS011;1453;42.708;23.282;2023-01-16T04:18:22;81.30;;;33.50;;
2888;SDS011;1453;42.708;23.282;2023-01-16T04:20:54;75.18;;;34.95;;
2888;SDS011;1453;42.708;23.282;2023-01-16T04:23:20;83.38;;;40.85;;
2888;SDS011;1453;42.708;23.282;2023-01-16T04:25:46;64.93;;;30.77;;
2888;SDS011;1453;42.708;23.282;2023-01-16T04:28:12;70.83;;;32.03;;
2888;SDS011;1453;42.708;23.282;2023-01-16T04:30:37;61.87;;;30.00;;
2888;SDS011;1453;42.708;23.282;2023-01-16T04:33:03;73.87;;;31.50;;
2888;SDS011;1453;42.708;23.282;2023-01-16T04:35:29;58.60;;;28.20;;
2888;SDS011;1453;42.708;23.282;2023-01-16T04:37:56;96.03;;;28.52;;
2888;SDS011;1453;42.708;23.282;2023-01-16T04:40:22;106.40;;;29.67;;
2888;SDS011;1453;42.708;23.282;2023-01-16T04:42:48;108.90;;;30.58;;
2888;SDS011;1453;42.708;23.282;2023-01-16T04:45:14;75.03;;;24.30;;
2888;SDS011;1453;42.708;23.282;2023-01-16T04:47:44;72.53;;;24.45;;
2888;SDS011;1453;42.708;23.282;2023-01-16T04:50:13;80.25;;;29.92;;
2888;SDS011;1453;42.708;23.282;2023-01-16T04:52:40;90.10;;;28.25;;
2888;SDS011;1453;42.708;23.282;2023-01-16T04:55:07;96.32;;;27.65;;
2888;SDS011;1453;42.708;23.282;2023-01-16T04:57:34;71.18;;;23.60;;
2888;SDS011;1453;42.708;23.282;2023-01-16T05:00:00;71.25;;;20.48;;
2888;SDS011;1453;42.708;23.282;2023-01-16T05:02:26;57.05;;;19.88;;
2888;SDS011;1453;42.708;23.282;2023-01-16T05:04:52;68.13;;;23.67;;
2888;SDS011;1453;42.708;23.282;2023-01-16T05:07:17;198.37;;;31.77;;
2888;SDS011;1453;42.708;23.282;2023-01-16T05:09:43;354.30;;;41.30;;
2888;SDS011;1453;42.708;23.282;2023-01-16T05:12:09;133.90;;;27.87;;
2888;SDS011;1453;42.708;23.282;2023-01-16T05:14:35;74.60;;;24.97;;
2888;SDS011;1453;42.708;23.282;2023-01-16T05:17:02;136.67;;;26.83;;
2888;SDS011;1453;42.708;23.282;2023-01-16T05:19:28;121.95;;;26.80;;
2888;SDS011;1453;42.708;23.282;2023-01-16T05:21:53;229.10;;;36.80;;
2888;SDS011;1453;42.708;23.282;2023-01-16T05:24:19;188.70;;;31.57;;
2888;SDS011;1453;42.708;23.282;2023-01-16T05:26:45;82.47;;;21.77;;
2888;SDS011;1453;42.708;23.282;2023-01-16T05:29:11;137.23;;;26.03;;
2888;SDS011;1453;42.708;23.282;2023-01-16T05:31:36;97.30;;;23.70;;
2888;SDS011;1453;42.708;23.282;2023-01-16T05:34:02;59.67;;;20.17;;
2888;SDS011;1453;42.708;23.282;2023-01-16T05:36:28;121.37;;;25.67;;
2888;SDS011;1453;42.708;23.282;2023-01-16T05:38:54;181.03;;;31.90;;
2888;SDS011;1453;42.708;23.282;2023-01-16T05:41:20;72.50;;;20.57;;
2888;SDS011;1453;42.708;23.282;2023-01-16T05:43:45;87.73;;;22.27;;
2888;SDS011;1453;42.708;23.282;2023-01-16T05:46:11;126.17;;;28.13;;
2888;SDS011;1453;42.708;23.282;2023-01-16T05:48:37;66.85;;;21.60;;
2888;SDS011;1453;42.708;23.282;2023-01-16T05:51:04;79.25;;;20.40;;
2888;SDS011;1453;42.708;23.282;2023-01-16T05:53:30;79.85;;;21.50;;
2888;SDS011;1453;42.708;23.282;2023-01-16T05:55:56;180.85;;;29.75;;
2888;SDS011;1453;42.708;23.282;2023-01-16T05:58:23;118.97;;;25.10;;
2888;SDS011;1453;42.708;23.282;2023-01-16T06:00:49;337.00;;;41.42;;
2888;SDS011;1453;42.708;23.282;2023-01-16T06:03:15;205.67;;;32.00;;
2888;SDS011;1453;42.708;23.282;2023-01-16T06:05:41;455.87;;;50.33;;
2888;SDS011;1453;42.708;23.282;2023-01-16T06:08:07;117.70;;;29.02;;
2888;SDS011;1453;42.708;23.282;2023-01-16T06:10:33;263.02;;;37.00;;
2888;SDS011;1453;42.708;23.282;2023-01-16T06:13:01;102.63;;;27.25;;
2888;SDS011;1453;42.708;23.282;2023-01-16T06:15:28;87.47;;;26.80;;
2888;SDS011;1453;42.708;23.282;2023-01-16T06:17:54;181.82;;;31.27;;
2888;SDS011;1453;42.708;23.282;2023-01-16T06:20:23;93.35;;;25.23;;
2888;SDS011;1453;42.708;23.282;2023-01-16T06:22:49;120.30;;;27.25;;
2888;SDS011;1453;42.708;23.282;2023-01-16T06:25:15;90.70;;;26.03;;
2888;SDS011;1453;42.708;23.282;2023-01-16T06:27:41;101.03;;;29.50;;
2888;SDS011;1453;42.708;23.282;2023-01-16T06:30:07;321.73;;;49.20;;
2888;SDS011;1453;42.708;23.282;2023-01-16T06:32:33;69.32;;;24.75;;
2888;SDS011;1453;42.708;23.282;2023-01-16T06:34:59;97.97;;;25.67;;
2888;SDS011;1453;42.708;23.282;2023-01-16T06:37:25;182.47;;;35.33;;
2888;SDS011;1453;42.708;23.282;2023-01-16T06:39:51;150.97;;;39.80;;
2888;SDS011;1453;42.708;23.282;2023-01-16T06:42:17;87.47;;;30.40;;
2888;SDS011;1453;42.708;23.282;2023-01-16T06:44:43;205.43;;;37.17;;
2888;SDS011;1453;42.708;23.282;2023-01-16T06:47:09;97.37;;;32.30;;
2888;SDS011;1453;42.708;23.282;2023-01-16T06:49:34;82.38;;;29.95;;
2888;SDS011;1453;42.708;23.282;2023-01-16T06:52:00;180.60;;;40.37;;
2888;SDS011;1453;42.708;23.282;2023-01-16T06:54:26;167.13;;;40.70;;
2888;SDS011;1453;42.708;23.282;2023-01-16T06:56:52;139.13;;;37.00;;
2888;SDS011;1453;42.708;23.282;2023-01-16T06:59:18;260.70;;;44.03;;
2888;SDS011;1453;42.708;23.282;2023-01-16T07:01:44;90.57;;;30.90;;
2888;SDS011;1453;42.708;23.282;2023-01-16T07:04:09;138.90;;;35.53;;
2888;SDS011;1453;42.708;23.282;2023-01-16T07:06:35;327.73;;;46.33;;
2888;SDS011;1453;42.708;23.282;2023-01-16T07:09:03;155.77;;;35.42;;
2888;SDS011;1453;42.708;23.282;2023-01-16T07:11:29;102.97;;;33.17;;
2888;SDS011;1453;42.708;23.282;2023-01-16T07:13:54;187.03;;;39.47;;
2888;SDS011;1453;42.708;23.282;2023-01-16T07:16:40;95.10;;;34.40;;
2888;SDS011;1453;42.708;23.282;2023-01-16T07:19:24;129.32;;;36.88;;
2888;SDS011;1453;42.708;23.282;2023-01-16T07:22:10;111.22;;;35.40;;
2888;SDS011;1453;42.708;23.282;2023-01-16T07:25:00;71.88;;;30.45;;
2888;SDS011;1453;42.708;23.282;2023-01-16T07:27:28;76.72;;;31.73;;
2888;SDS011;1453;42.708;23.282;2023-01-16T07:29:55;74.97;;;30.60;;
2888;SDS011;1453;42.708;23.282;2023-01-16T07:32:22;83.13;;;31.95;;
2888;SDS011;1453;42.708;23.282;2023-01-16T07:34:49;66.82;;;28.60;;
2888;SDS011;1453;42.708;23.282;2023-01-16T07:37:16;80.30;;;28.60;;
2888;SDS011;1453;42.708;23.282;2023-01-16T07:39:42;66.63;;;26.55;;
2888;SDS011;1453;42.708;23.282;2023-01-16T07:42:11;73.30;;;28.98;;
2888;SDS011;1453;42.708;23.282;2023-01-16T07:44:37;56.88;;;26.95;;
2888;SDS011;1453;42.708;23.282;2023-01-16T07:47:06;56.00;;;26.77;;
2888;SDS011;1453;42.708;23.282;2023-01-16T07:49:33;59.30;;;26.83;;
2888;SDS011;1453;42.708;23.282;2023-01-16T07:52:00;62.70;;;29.27;;
2888;SDS011;1453;42.708;23.282;2023-01-16T07:54:27;67.65;;;28.40;;
2888;SDS011;1453;42.708;23.282;2023-01-16T07:56:54;83.65;;;33.28;;
2888;SDS011;1453;42.708;23.282;2023-01-16T07:59:21;77.45;;;35.38;;
2888;SDS011;1453;42.708;23.282;2023-01-16T08:01:48;74.57;;;32.10;;
2888;SDS011;1453;42.708;23.282;2023-01-16T08:04:16;71.15;;;33.05;;
2888;SDS011;1453;42.708;23.282;2023-01-16T08:06:43;71.57;;;29.50;;
2888;SDS011;1453;42.708;23.282;2023-01-16T08:09:11;72.95;;;32.30;;
2888;SDS011;1453;42.708;23.282;2023-01-16T08:11:38;61.72;;;30.30;;
2888;SDS011;1453;42.708;23.282;2023-01-16T08:14:06;67.22;;;31.15;;
2888;SDS011;1453;42.708;23.282;2023-01-16T08:16:33;65.05;;;29.85;;
2888;SDS011;1453;42.708;23.282;2023-01-16T08:18:59;65.45;;;33.55;;
2888;SDS011;1453;42.708;23.282;2023-01-16T08:21:27;68.40;;;32.77;;
2888;SDS011;1453;42.708;23.282;2023-01-16T08:23:54;75.07;;;33.08;;
2888;SDS011;1453;42.708;23.282;2023-01-16T08:26:22;74.10;;;32.90;;
2888;SDS011;1453;42.708;23.282;2023-01-16T08:28:49;71.97;;;33.78;;
2888;SDS011;1453;42.708;23.282;2023-01-16T08:31:18;80.93;;;37.70;;
2888;SDS011;1453;42.708;23.282;2023-01-16T08:33:44;79.50;;;37.50;;
2888;SDS011;1453;42.708;23.282;2023-01-16T08:36:11;83.78;;;37.83;;
2888;SDS011;1453;42.708;23.282;2023-01-16T08:38:38;86.95;;;41.00;;
2888;SDS011;1453;42.708;23.282;2023-01-16T08:41:04;87.95;;;41.78;;
2888;SDS011;1453;42.708;23.282;2023-01-16T08:43:50;81.65;;;38.53;;
2888;SDS011;1453;42.708;23.282;2023-01-16T08:46:34;81.93;;;37.95;;
2888;SDS011;1453;42.708;23.282;2023-01-16T08:49:18;77.80;;;36.28;;
2888;SDS011;1453;42.708;23.282;2023-01-16T08:52:03;71.38;;;34.42;;
2888;SDS011;1453;42.708;23.282;2023-01-16T08:54:29;77.05;;;38.08;;
2888;SDS011;1453;42.708;23.282;2023-01-16T08:56:54;79.00;;;39.17;;
2888;SDS011;1453;42.708;23.282;2023-01-16T08:59:20;111.53;;;54.03;;
2888;SDS011;1453;42.708;23.282;2023-01-16T09:01:46;89.90;;;43.33;;
2888;SDS011;1453;42.708;23.282;2023-01-16T09:04:12;79.10;;;40.53;;
2888;SDS011;1453;42.708;23.282;2023-01-16T09:06:38;77.03;;;38.97;;
2888;SDS011;1453;42.708;23.282;2023-01-16T09:09:04;77.37;;;38.20;;
2888;SDS011;1453;42.708;23.282;2023-01-16T09:11:34;65.53;;;35.05;;
2888;SDS011;1453;42.708;23.282;2023-01-16T09:14:18;71.50;;;38.78;;
2888;SDS011;1453;42.708;23.282;2023-01-16T09:16:45;76.55;;;36.67;;
2888;SDS011;1453;42.708;23.282;2023-01-16T09:19:11;72.13;;;36.45;;
2888;SDS011;1453;42.708;23.282;2023-01-16T09:21:37;67.13;;;35.43;;
2888;SDS011;1453;42.708;23.282;2023-01-16T09:24:03;78.73;;;37.23;;
2888;SDS011;1453;42.708;23.282;2023-01-16T09:26:29;71.10;;;36.67;;
2888;SDS011;1453;42.708;23.282;2023-01-16T09:28:55;61.28;;;33.67;;
2888;SDS011;1453;42.708;23.282;2023-01-16T09:31:22;64.20;;;34.60;;
2888;SDS011;1453;42.708;23.282;2023-01-16T09:33:48;67.40;;;33.37;;
2888;SDS011;1453;42.708;23.282;2023-01-16T09:36:14;60.17;;;33.38;;
2888;SDS011;1453;42.708;23.282;2023-01-16T09:38:40;53.55;;;30.77;;
2888;SDS011;1453;42.708;23.282;2023-01-16T09:41:08;59.73;;;30.87;;
2888;SDS011;1453;42.708;23.282;2023-01-16T09:44:00;51.42;;;27.02;;
2888;SDS011;1453;42.708;23.282;2023-01-16T09:46:28;51.47;;;29.77;;
2888;SDS011;1453;42.708;23.282;2023-01-16T09:49:22;46.00;;;26.98;;
2888;SDS011;1453;42.708;23.282;2023-01-16T09:52:19;45.72;;;23.92;;
2888;SDS011;1453;42.708;23.282;2023-01-16T09:55:18;36.95;;;23.45;;
2888;SDS011;1453;42.708;23.282;2023-01-16T09:58:10;40.72;;;23.90;;
2888;SDS011;1453;42.708;23.282;2023-01-16T10:01:05;40.00;;;22.92;;
2888;SDS011;1453;42.708;23.282;2023-01-16T10:03:41;38.47;;;22.48;;
2888;SDS011;1453;42.708;23.282;2023-01-16T10:06:20;40.45;;;20.15;;
2888;SDS011;1453;42.708;23.282;2023-01-16T10:12:04;37.65;;;20.27;;
2888;SDS011;1453;42.708;23.282;2023-01-16T10:17:29;39.78;;;22.60;;
2888;SDS011;1453;42.708;23.282;2023-01-16T10:20:42;33.83;;;20.85;;
2888;SDS011;1453;42.708;23.282;2023-01-16T10:25:51;34.05;;;21.08;;
2888;SDS011;1453;42.708;23.282;2023-01-16T10:35:02;40.05;;;20.30;;
2888;SDS011;1453;42.708;23.282;2023-01-16T10:37:43;31.23;;;18.45;;
2888;SDS011;1453;42.708;23.282;2023-01-16T10:40:11;34.33;;;20.38;;
2888;SDS011;1453;42.708;23.282;2023-01-16T10:42:45;40.80;;;22.63;;
2888;SDS011;1453;42.708;23.282;2023-01-16T10:45:49;43.83;;;22.90;;
2888;SDS011;1453;42.708;23.282;2023-01-16T10:48:51;32.13;;;20.70;;
2888;SDS011;1453;42.708;23.282;2023-01-16T10:51:36;39.92;;;23.20;;
2888;SDS011;1453;42.708;23.282;2023-01-16T10:54:02;35.57;;;21.30;;
2888;SDS011;1453;42.708;23.282;2023-01-16T10:56:28;36.60;;;20.53;;
2888;SDS011;1453;42.708;23.282;2023-01-16T10:58:56;31.90;;;20.20;;
2888;SDS011;1453;42.708;23.282;2023-01-16T11:01:22;35.40;;;21.60;;
2888;SDS011;1453;42.708;23.282;2023-01-16T11:03:51;35.13;;;22.10;;
2888;SDS011;1453;42.708;23.282;2023-01-16T11:06:22;36.83;;;21.60;;
2888;SDS011;1453;42.708;23.282;2023-01-16T11:08:52;31.33;;;21.93;;
2888;SDS011;1453;42.708;23.282;2023-01-16T11:11:27;32.97;;;21.87;;
2888;SDS011;1453;42.708;23.282;2023-01-16T11:14:14;31.70;;;21.87;;
2888;SDS011;1453;42.708;23.282;2023-01-16T11:20:11;28.97;;;20.77;;
2888;SDS011;1453;42.708;23.282;2023-01-16T11:22:57;32.53;;;22.40;;
2888;SDS011;1453;42.708;23.282;2023-01-16T11:25:29;29.00;;;18.60;;
2888;SDS011;1453;42.708;23.282;2023-01-16T11:27:57;33.30;;;21.60;;
2888;SDS011;1453;42.708;23.282;2023-01-16T11:30:31;33.27;;;20.60;;
2888;SDS011;1453;42.708;23.282;2023-01-16T11:33:17;35.50;;;24.53;;
2888;SDS011;1453;42.708;23.282;2023-01-16T11:35:50;29.10;;;19.50;;
2888;SDS011;1453;42.708;23.282;2023-01-16T11:38:20;34.03;;;22.77;;
2888;SDS011;1453;42.708;23.282;2023-01-16T11:40:50;31.70;;;20.20;;
2888;SDS011;1453;42.708;23.282;2023-01-16T11:43:24;39.90;;;24.10;;
2888;SDS011;1453;42.708;23.282;2023-01-16T11:46:21;35.47;;;24.30;;
2888;SDS011;1453;42.708;23.282;2023-01-16T11:48:55;29.57;;;20.07;;
2888;SDS011;1453;42.708;23.282;2023-01-16T11:51:32;30.57;;;20.70;;
2888;SDS011;1453;42.708;23.282;2023-01-16T11:54:02;29.83;;;20.10;;
2888;SDS011;1453;42.708;23.282;2023-01-16T12:05:13;25.93;;;17.33;;
2888;SDS011;1453;42.708;23.282;2023-01-16T12:16:42;24.13;;;17.07;;
2888;SDS011;1453;42.708;23.282;2023-01-16T12:22:44;29.40;;;17.27;;
2888;SDS011;1453;42.708;23.282;2023-01-16T12:31:30;28.60;;;17.90;;
2888;SDS011;1453;42.708;23.282;2023-01-16T12:40:27;31.75;;;18.27;;
2888;SDS011;1453;42.708;23.282;2023-01-16T12:46:00;28.30;;;17.33;;
2888;SDS011;1453;42.708;23.282;2023-01-16T12:48:48;27.52;;;15.75;;
2888;SDS011;1453;42.708;23.282;2023-01-16T12:51:35;26.58;;;16.70;;
2888;SDS011;1453;42.708;23.282;2023-01-16T13:00:45;22.48;;;14.95;;
2888;SDS011;1453;42.708;23.282;2023-01-16T13:03:54;20.45;;;13.00;;
2888;SDS011;1453;42.708;23.282;2023-01-16T13:06:48;20.88;;;12.60;;
2888;SDS011;1453;42.708;23.282;2023-01-16T13:12:56;21.40;;;13.57;;
2888;SDS011;1453;42.708;23.282;2023-01-16T13:15:43;20.75;;;12.80;;
2888;SDS011;1453;42.708;23.282;2023-01-16T13:21:20;19.92;;;11.52;;
2888;SDS011;1453;42.708;23.282;2023-01-16T13:24:01;23.42;;;13.80;;
2888;SDS011;1453;42.708;23.282;2023-01-16T13:26:37;24.42;;;15.05;;
2888;SDS011;1453;42.708;23.282;2023-01-16T13:29:22;23.80;;;14.60;;
2888;SDS011;1453;42.708;23.282;2023-01-16T13:34:51;27.13;;;16.55;;
2888;SDS011;1453;42.708;23.282;2023-01-16T13:43:59;29.55;;;15.93;;
2888;SDS011;1453;42.708;23.282;2023-01-16T13:47:05;21.65;;;13.80;;
2888;SDS011;1453;42.708;23.282;2023-01-16T13:49:38;23.55;;;15.55;;
2888;SDS011;1453;42.708;23.282;2023-01-16T13:52:11;32.17;;;15.15;;
2888;SDS011;1453;42.708;23.282;2023-01-16T13:54:44;26.52;;;14.02;;
2888;SDS011;1453;42.708;23.282;2023-01-16T13:57:14;24.63;;;14.25;;
2888;SDS011;1453;42.708;23.282;2023-01-16T14:08:13;29.90;;;15.20;;
2888;SDS011;1453;42.708;23.282;2023-01-16T14:11:03;29.42;;;14.15;;
2888;SDS011;1453;42.708;23.282;2023-01-16T14:13:40;25.63;;;14.35;;
2888;SDS011;1453;42.708;23.282;2023-01-16T14:21:49;30.38;;;15.43;;
2888;SDS011;1453;42.708;23.282;2023-01-16T14:24:42;27.45;;;15.55;;
2888;SDS011;1453;42.708;23.282;2023-01-16T14:27:19;30.88;;;15.50;;
2888;SDS011;1453;42.708;23.282;2023-01-16T14:30:04;25.52;;;15.05;;
2888;SDS011;1453;42.708;23.282;2023-01-16T14:32:47;29.90;;;15.77;;
2888;SDS011;1453;42.708;23.282;2023-01-16T14:35:22;27.77;;;14.45;;
2888;SDS011;1453;42.708;23.282;2023-01-16T14:37:57;24.60;;;15.30;;
2888;SDS011;1453;42.708;23.282;2023-01-16T14:40:37;30.45;;;15.32;;
2888;SDS011;1453;42.708;23.282;2023-01-16T14:43:35;30.52;;;14.18;;
2888;SDS011;1453;42.708;23.282;2023-01-16T14:46:24;25.85;;;14.23;;
2888;SDS011;1453;42.708;23.282;2023-01-16T14:52:57;27.52;;;14.77;;
2888;SDS011;1453;42.708;23.282;2023-01-16T14:55:57;38.17;;;16.75;;
2888;SDS011;1453;42.708;23.282;2023-01-16T14:58:45;26.08;;;15.90;;
2888;SDS011;1453;42.708;23.282;2023-01-16T15:01:27;24.60;;;15.77;;
2888;SDS011;1453;42.708;23.282;2023-01-16T15:04:15;33.75;;;16.92;;
2888;SDS011;1453;42.708;23.282;2023-01-16T15:06:52;35.78;;;17.23;;
2888;SDS011;1453;42.708;23.282;2023-01-16T15:09:23;29.17;;;17.55;;
2888;SDS011;1453;42.708;23.282;2023-01-16T15:12:02;33.80;;;18.65;;
2888;SDS011;1453;42.708;23.282;2023-01-16T15:14:50;31.38;;;17.42;;
2888;SDS011;1453;42.708;23.282;2023-01-16T15:20:35;31.10;;;18.10;;
2888;SDS011;1453;42.708;23.282;2023-01-16T15:23:22;29.77;;;16.92;;
2888;SDS011;1453;42.708;23.282;2023-01-16T15:31:37;37.45;;;20.58;;
2888;SDS011;1453;42.708;23.282;2023-01-16T15:36:38;32.75;;;18.42;;
2888;SDS011;1453;42.708;23.282;2023-01-16T15:39:26;36.92;;;20.00;;
2888;SDS011;1453;42.708;23.282;2023-01-16T15:42:12;35.83;;;18.13;;
2888;SDS011;1453;42.708;23.282;2023-01-16T15:45:04;27.13;;;16.63;;
2888;SDS011;1453;42.708;23.282;2023-01-16T15:48:11;30.88;;;18.15;;
2888;SDS011;1453;42.708;23.282;2023-01-16T15:51:01;30.25;;;16.98;;
2888;SDS011;1453;42.708;23.282;2023-01-16T15:53:31;30.92;;;17.20;;
2888;SDS011;1453;42.708;23.282;2023-01-16T15:59:19;36.10;;;19.73;;
2888;SDS011;1453;42.708;23.282;2023-01-16T16:01:48;32.67;;;17.27;;
2888;SDS011;1453;42.708;23.282;2023-01-16T16:04:13;30.10;;;15.53;;
2888;SDS011;1453;42.708;23.282;2023-01-16T16:06:40;34.45;;;18.70;;
2888;SDS011;1453;42.708;23.282;2023-01-16T16:09:09;34.38;;;20.27;;
2888;SDS011;1453;42.708;23.282;2023-01-16T16:11:49;34.78;;;21.08;;
2888;SDS011;1453;42.708;23.282;2023-01-16T16:17:25;34.80;;;18.80;;
2888;SDS011;1453;42.708;23.282;2023-01-16T16:20:25;38.60;;;18.48;;
2888;SDS011;1453;42.708;23.282;2023-01-16T16:23:04;34.25;;;17.00;;
2888;SDS011;1453;42.708;23.282;2023-01-16T16:25:51;25.20;;;14.40;;
2888;SDS011;1453;42.708;23.282;2023-01-16T16:31:17;37.17;;;20.55;;
2888;SDS011;1453;42.708;23.282;2023-01-16T16:36:38;34.13;;;18.60;;
2888;SDS011;1453;42.708;23.282;2023-01-16T16:41:59;33.50;;;19.35;;
2888;SDS011;1453;42.708;23.282;2023-01-16T16:45:03;31.05;;;18.30;;
2888;SDS011;1453;42.708;23.282;2023-01-16T16:47:39;34.33;;;20.42;;
2888;SDS011;1453;42.708;23.282;2023-01-16T16:53:27;35.28;;;19.90;;
2888;SDS011;1453;42.708;23.282;2023-01-16T16:58:43;34.55;;;19.67;;
2888;SDS011;1453;42.708;23.282;2023-01-16T17:01:12;31.90;;;17.40;;
2888;SDS011;1453;42.708;23.282;2023-01-16T17:03:40;36.67;;;19.05;;
2888;SDS011;1453;42.708;23.282;2023-01-16T17:06:13;38.15;;;20.60;;
2888;SDS011;1453;42.708;23.282;2023-01-16T17:08:44;38.92;;;19.92;;
2888;SDS011;1453;42.708;23.282;2023-01-16T17:11:10;36.17;;;20.17;;
2888;SDS011;1453;42.708;23.282;2023-01-16T17:13:36;39.58;;;20.88;;
2888;SDS011;1453;42.708;23.282;2023-01-16T17:16:02;30.87;;;19.03;;
2888;SDS011;1453;42.708;23.282;2023-01-16T17:18:31;39.13;;;19.77;;
2888;SDS011;1453;42.708;23.282;2023-01-16T17:20:58;31.35;;;17.58;;
2888;SDS011;1453;42.708;23.282;2023-01-16T17:23:23;32.47;;;19.30;;
2888;SDS011;1453;42.708;23.282;2023-01-16T17:25:51;34.13;;;19.98;;
2888;SDS011;1453;42.708;23.282;2023-01-16T17:28:17;45.70;;;26.47;;
2888;SDS011;1453;42.708;23.282;2023-01-16T17:30:43;37.23;;;19.60;;
2888;SDS011;1453;42.708;23.282;2023-01-16T17:35:41;38.00;;;21.05;;
2888;SDS011;1453;42.708;23.282;2023-01-16T17:40:43;39.30;;;20.58;;
2888;SDS011;1453;42.708;23.282;2023-01-16T17:43:17;36.33;;;21.15;;
2888;SDS011;1453;42.708;23.282;2023-01-16T17:46:22;36.75;;;21.08;;
2888;SDS011;1453;42.708;23.282;2023-01-16T17:48:50;34.33;;;18.55;;
2888;SDS011;1453;42.708;23.282;2023-01-16T17:51:16;39.55;;;21.02;;
2888;SDS011;1453;42.708;23.282;2023-01-16T17:53:48;40.38;;;21.40;;
2888;SDS011;1453;42.708;23.282;2023-01-16T17:56:14;36.78;;;19.23;;
2888;SDS011;1453;42.708;23.282;2023-01-16T17:58:41;43.42;;;22.67;;
2888;SDS011;1453;42.708;23.282;2023-01-16T18:01:24;43.13;;;23.15;;
2888;SDS011;1453;42.708;23.282;2023-01-16T18:03:56;42.95;;;21.17;;